Terminal Aerodrome Forecast
Issued by NWS

Home | Current Version | Previous Version | Text Only | Print | Product List | Glossary On
Versions: 1 2 3 4 5 6 7 8 9 10 11 12 13 14 15
000
FTUS44 KCRP 061740
TAFALI
TAF
KALI 061740Z 0618/0718 15015G25KT P6SM VCSH BKN035 OVC060
     FM070200 13012KT P6SM SCT015 BKN025
      TEMPO 0709/0713 BKN015 OVC025
     FM071500 15008G15KT P6SM BKN020 OVC030
     FM071700 15012G18KT P6SM BKN035=

USA.gov is the U.S. government's official web portal to all federal, state and local government web resources and services.